Carolina, West Virginia
Current Conditions -  °F | °C
As of 4:53 AM on Friday 31 Oct 2014 (Local Time) from KCKB Reporting Station
Overcast Overcast  
Wind Chill: 42°   Ceiling: 4400
Heat Index: 42°   Visibility: 10mi
Dew Point: 39°   Wind: 0mph
Humidity: 89%   Direction: NA
Pressure: 29.99"   Gusts: NA
Location:  39.48°N, 80.27°W
Report Text: KCKB 310853Z AUTO 00000KT 10SM OVC044 06/04 A2999 RMK AO2 SLP155 T00560039 56008
Loading
Personal Weather Stations






























Interactive Weather Map
Tropical Storm Tracking
New forecast layout! Learn more

10-Day Weather Forecast

Advertisements
Track Severe Weather on mobile